createdAt,value
2022-08-07T00:02:36.987Z,19.24
2022-08-07T00:04:15.399Z,19.28
2022-08-07T00:06:20.491Z,19.12
2022-08-07T00:08:33.382Z,19.18
2022-08-07T00:10:47.770Z,19.17
2022-08-07T00:13:00.607Z,19.20
2022-08-07T00:15:05.762Z,19.08
2022-08-07T00:17:09.295Z,19.10
2022-08-07T00:19:21.294Z,18.84
2022-08-07T00:21:56.329Z,18.89
2022-08-07T00:23:48.764Z,18.87
2022-08-07T00:26:01.537Z,19.03
2022-08-07T00:28:10.652Z,19.06
2022-08-07T00:30:21.920Z,18.89
2022-08-07T00:32:31.497Z,18.80
2022-08-07T00:34:38.658Z,18.71
2022-08-07T00:36:43.193Z,18.62
2022-08-07T00:38:47.127Z,18.71
2022-08-07T00:40:54.033Z,18.75
2022-08-07T00:42:57.895Z,18.67
2022-08-07T00:45:07.049Z,18.71
2022-08-07T00:47:16.165Z,18.77
2022-08-07T00:50:19.127Z,18.75
2022-08-07T00:51:59.198Z,18.66
2022-08-07T00:54:02.870Z,18.46
2022-08-07T00:56:13.864Z,18.49
2022-08-07T00:58:20.587Z,18.40
2022-08-07T01:00:26.136Z,18.47
2022-08-07T01:02:30.885Z,18.47
2022-08-07T01:04:40.092Z,18.42
2022-08-07T01:06:47.204Z,18.41
2022-08-07T01:08:53.211Z,18.39
2022-08-07T01:10:58.445Z,18.44
2022-08-07T01:13:16.348Z,18.34
2022-08-07T01:15:21.882Z,18.39
2022-08-07T01:17:28.039Z,18.38
2022-08-07T01:19:34.877Z,18.27
2022-08-07T01:21:47.185Z,18.49
2022-08-07T01:23:51.808Z,18.51
2022-08-07T01:25:56.435Z,18.02
2022-08-07T01:28:01.241Z,17.96
2022-08-07T01:30:07.713Z,17.91
2022-08-07T01:32:14.537Z,17.41
2022-08-07T01:34:23.997Z,17.86
2022-08-07T01:36:40.502Z,17.97
2022-08-07T01:38:52.558Z,18.09
2022-08-07T01:41:02.312Z,18.11
2022-08-07T01:43:06.512Z,18.07
2022-08-07T01:45:17.762Z,17.96
2022-08-07T01:48:19.995Z,18.01
2022-08-07T01:49:53.551Z,17.94
2022-08-07T01:52:04.935Z,17.87
2022-08-07T01:54:32.594Z,17.94
2022-08-07T01:56:49.215Z,17.86
2022-08-07T01:58:58.449Z,17.70
2022-08-07T02:01:09.265Z,17.63
2022-08-07T02:03:32.158Z,17.68
2022-08-07T02:05:59.885Z,17.70
2022-08-07T02:08:13.961Z,17.68
2022-08-07T02:10:24.832Z,17.63
2022-08-07T02:12:31.348Z,17.70
2022-08-07T02:14:40.709Z,17.09
2022-08-07T02:16:52.436Z,17.02
2022-08-07T02:18:57.325Z,16.97
2022-08-07T02:21:06.339Z,17.09
2022-08-07T02:23:12.700Z,17.03
2022-08-07T02:26:10.547Z,17.23
2022-08-07T02:27:53.749Z,17.22
2022-08-07T02:30:03.958Z,17.36
2022-08-07T02:32:13.675Z,17.23
2022-08-07T02:34:20.166Z,17.31
2022-08-07T02:36:32.891Z,17.08
2022-08-07T02:38:56.569Z,17.01
2022-08-07T02:41:04.670Z,17.07
2022-08-07T02:43:11.209Z,16.94
2022-08-07T02:46:00.504Z,16.53
2022-08-07T02:47:48.892Z,16.54
2022-08-07T02:49:57.901Z,16.48
2022-08-07T02:52:09.910Z,16.30
2022-08-07T02:54:21.470Z,16.60
2022-08-07T02:56:32.994Z,16.54
2022-08-07T02:58:39.663Z,16.32
2022-08-07T03:00:53.757Z,16.38
2022-08-07T03:02:58.352Z,16.63
2022-08-07T03:05:06.584Z,16.71
2022-08-07T03:07:11.649Z,16.75
2022-08-07T03:09:43.496Z,16.53
2022-08-07T03:11:52.236Z,16.74
2022-08-07T03:14:05.577Z,16.74
2022-08-07T03:16:10.953Z,16.52
2022-08-07T03:18:20.006Z,16.61
2022-08-07T03:20:25.712Z,16.47
2022-08-07T03:22:30.756Z,16.32
2022-08-07T03:24:36.691Z,16.53
2022-08-07T03:26:51.095Z,16.42
2022-08-07T03:29:10.397Z,16.56
2022-08-07T03:31:19.521Z,16.32
2022-08-07T03:33:32.270Z,16.11
2022-08-07T03:35:50.590Z,15.89
2022-08-07T03:38:01.717Z,15.83
2022-08-07T03:40:16.144Z,15.82
2022-08-07T03:42:21.767Z,15.85
2022-08-07T03:44:34.210Z,15.96
2022-08-07T03:47:14.242Z,15.98
2022-08-07T03:49:05.589Z,15.75
2022-08-07T03:51:17.762Z,16.00
2022-08-07T03:53:49.936Z,16.03
2022-08-07T03:55:58.328Z,16.10
2022-08-07T03:59:07.201Z,15.87
2022-08-07T04:00:36.901Z,15.94
2022-08-07T04:02:43.136Z,15.89
2022-08-07T04:04:59.386Z,15.74
2022-08-07T04:07:07.562Z,15.75
2022-08-07T04:09:23.468Z,15.67
2022-08-07T04:12:24.813Z,15.82
2022-08-07T04:14:33.203Z,15.33
2022-08-07T04:16:31.078Z,15.34
2022-08-07T04:18:59.110Z,15.26
2022-08-07T04:21:07.335Z,15.30
2022-08-07T04:23:19.390Z,15.38
2022-08-07T04:25:29.313Z,15.55
2022-08-07T04:27:43.907Z,15.74
2022-08-07T04:30:01.405Z,15.58
2022-08-07T04:32:34.692Z,15.62
2022-08-07T04:34:40.539Z,15.62
2022-08-07T04:36:45.247Z,15.83
2022-08-07T04:38:49.296Z,15.79
2022-08-07T04:40:56.500Z,15.90
2022-08-07T04:43:18.639Z,15.73
2022-08-07T04:45:57.675Z,15.25
2022-08-07T04:48:10.653Z,15.32
2022-08-07T04:50:23.813Z,15.42
2022-08-07T04:52:53.253Z,15.70
2022-08-07T04:55:15.481Z,15.69
2022-08-07T04:58:12.970Z,15.64
2022-08-07T05:00:29.979Z,15.56
2022-08-07T05:02:49.873Z,15.55
2022-08-07T05:05:11.950Z,15.69
2022-08-07T05:07:44.208Z,15.64
2022-08-07T05:10:00.707Z,15.70
2022-08-07T05:12:10.616Z,15.78
2022-08-07T05:14:55.527Z,15.67
2022-08-07T05:16:52.653Z,15.72
2022-08-07T05:19:01.512Z,15.85
2022-08-07T05:21:10.849Z,15.89
2022-08-07T05:23:23.241Z,16.09
2022-08-07T05:26:13.471Z,16.20
2022-08-07T05:28:03.144Z,16.15
2022-08-07T05:30:30.174Z,15.17
2022-08-07T05:32:39.723Z,15.55
2022-08-07T05:34:44.734Z,15.55
2022-08-07T05:36:52.957Z,15.52
2022-08-07T05:40:06.423Z,15.34
2022-08-07T05:42:01.619Z,15.25
2022-08-07T05:44:12.641Z,15.35
2022-08-07T05:46:21.821Z,15.29
2022-08-07T05:48:31.168Z,15.24
2022-08-07T05:50:39.568Z,15.27
2022-08-07T05:52:49.300Z,15.49
2022-08-07T05:54:56.073Z,15.68
2022-08-07T05:57:07.350Z,15.86
2022-08-07T05:59:20.779Z,16.07
2022-08-07T06:01:35.647Z,15.80
2022-08-07T06:03:53.848Z,16.55
2022-08-07T06:06:04.854Z,16.41
2022-08-07T06:08:31.449Z,15.89
2022-08-07T06:10:37.640Z,16.56
2022-08-07T06:12:43.796Z,16.76
2022-08-07T06:14:49.457Z,16.72
2022-08-07T06:16:56.285Z,16.57
2022-08-07T06:19:17.997Z,16.97
2022-08-07T06:22:16.208Z,16.93
2022-08-07T06:24:46.178Z,17.13
2022-08-07T06:26:28.996Z,17.30
2022-08-07T06:28:34.554Z,17.12
2022-08-07T06:30:45.421Z,17.36
2022-08-07T06:32:54.183Z,17.36
2022-08-07T06:34:57.853Z,17.24
2022-08-07T06:37:02.583Z,17.24
2022-08-07T06:40:16.275Z,17.25
2022-08-07T06:42:02.939Z,17.27
2022-08-07T06:44:25.801Z,17.62
2022-08-07T06:46:35.317Z,17.81
2022-08-07T06:48:41.819Z,17.74
2022-08-07T06:50:49.842Z,17.63
2022-08-07T06:53:00.258Z,17.58
2022-08-07T06:55:33.423Z,17.82
2022-08-07T06:57:48.317Z,17.84
2022-08-07T07:00:17.710Z,17.97
2022-08-07T07:02:48.712Z,17.84
2022-08-07T07:04:55.165Z,17.88
2022-08-07T07:07:01.077Z,17.84
2022-08-07T07:09:18.832Z,17.95
2022-08-07T07:12:07.622Z,18.00
2022-08-07T07:13:58.600Z,18.10
2022-08-07T07:16:10.477Z,18.05
2022-08-07T07:18:37.682Z,18.19
2022-08-07T07:20:50.697Z,18.32
2022-08-07T07:24:05.203Z,18.38
2022-08-07T07:26:35.203Z,18.59
2022-08-07T07:27:56.207Z,18.47
2022-08-07T07:30:09.929Z,18.40
2022-08-07T07:32:17.128Z,18.43
2022-08-07T07:34:31.173Z,18.52
2022-08-07T07:36:40.466Z,18.53
2022-08-07T07:38:46.071Z,18.56
2022-08-07T07:40:52.948Z,18.63
2022-08-07T07:43:11.606Z,18.70
2022-08-07T07:46:35.549Z,18.66
2022-08-07T07:47:52.735Z,18.65
2022-08-07T07:50:36.253Z,18.82
2022-08-07T07:52:24.207Z,18.99
2022-08-07T07:54:29.243Z,18.97
2022-08-07T07:56:35.405Z,18.95
2022-08-07T07:58:41.161Z,19.01
2022-08-07T08:00:48.695Z,19.13
2022-08-07T08:03:04.702Z,19.36
2022-08-07T08:05:15.055Z,19.46
2022-08-07T08:07:20.160Z,19.61
2022-08-07T08:09:29.336Z,19.65
2022-08-07T08:11:47.205Z,19.81
2022-08-07T08:13:58.958Z,19.90
2022-08-07T08:16:06.486Z,19.86
2022-08-07T08:18:18.506Z,19.99
2022-08-07T08:20:27.416Z,20.03
2022-08-07T08:22:57.108Z,20.19
2022-08-07T08:25:27.002Z,20.22
2022-08-07T08:27:56.763Z,20.30
2022-08-07T08:30:09.211Z,20.21
2022-08-07T08:32:25.367Z,20.46
2022-08-07T08:34:31.332Z,20.44
2022-08-07T08:36:37.050Z,20.53
2022-08-07T08:38:45.606Z,20.50
2022-08-07T08:40:56.041Z,20.48
2022-08-07T08:43:09.962Z,20.57
2022-08-07T08:45:22.599Z,20.57
2022-08-07T08:47:51.935Z,20.61
2022-08-07T08:50:09.894Z,20.62
2022-08-07T08:52:23.276Z,20.62
2022-08-07T08:54:39.406Z,20.58
2022-08-07T08:56:48.319Z,20.55
2022-08-07T08:58:58.666Z,20.71
2022-08-07T09:01:15.726Z,20.77
2022-08-07T09:03:48.085Z,20.70
2022-08-07T09:05:56.924Z,20.89
2022-08-07T09:08:12.123Z,20.94
2022-08-07T09:10:26.452Z,20.95
2022-08-07T09:12:53.098Z,21.11
2022-08-07T09:16:21.958Z,21.24
2022-08-07T09:17:59.506Z,21.31
2022-08-07T09:20:34.991Z,21.53
2022-08-07T09:24:31.971Z,21.58
2022-08-07T09:25:18.283Z,21.64
2022-08-07T09:27:54.948Z,21.73
2022-08-07T09:30:08.406Z,21.64
2022-08-07T09:32:23.749Z,21.79
2022-08-07T09:34:45.391Z,21.88
2022-08-07T09:37:04.185Z,21.92
2022-08-07T09:39:53.672Z,21.99
2022-08-07T09:42:02.929Z,21.99
2022-08-07T09:44:32.899Z,22.17
2022-08-07T09:47:51.688Z,22.31
2022-08-07T09:50:02.402Z,22.40
2022-08-07T09:52:33.323Z,22.54
2022-08-07T09:54:45.360Z,22.69
2022-08-07T09:57:22.900Z,22.81
2022-08-07T09:59:46.675Z,22.99
2022-08-07T10:02:19.429Z,23.07
2022-08-07T10:04:54.997Z,23.43
2022-08-07T10:07:26.262Z,23.54
2022-08-07T10:10:00.824Z,23.59
2022-08-07T10:12:21.913Z,23.60
2022-08-07T10:14:54.190Z,23.44
2022-08-07T10:17:14.159Z,23.65
2022-08-07T10:19:37.743Z,23.67
2022-08-07T10:22:15.573Z,23.79
2022-08-07T10:24:45.476Z,23.90
2022-08-07T10:26:58.866Z,23.96
2022-08-07T10:29:19.032Z,24.20
2022-08-07T10:31:53.251Z,24.34
2022-08-07T10:34:17.862Z,24.28
2022-08-07T10:36:36.434Z,24.35
2022-08-07T10:38:52.050Z,24.38
2022-08-07T10:41:07.273Z,24.57
2022-08-07T10:43:19.478Z,24.67
2022-08-07T10:45:44.362Z,24.78
2022-08-07T10:48:14.472Z,24.86
2022-08-07T10:50:26.294Z,24.90
2022-08-07T10:52:40.095Z,25.06
2022-08-07T10:55:01.655Z,25.24
2022-08-07T10:57:15.443Z,25.39
2022-08-07T10:59:30.434Z,25.31
2022-08-07T11:01:52.060Z,25.24
2022-08-07T11:04:31.959Z,25.09
2022-08-07T11:06:46.268Z,25.40
2022-08-07T11:08:59.976Z,25.41
2022-08-07T11:11:10.020Z,25.16
2022-08-07T11:14:42.090Z,24.90
2022-08-07T11:15:54.285Z,25.29
2022-08-07T11:18:04.549Z,25.48
2022-08-07T11:20:15.561Z,25.49
2022-08-07T11:22:32.468Z,25.44
2022-08-07T11:24:51.868Z,25.49
2022-08-07T11:27:03.170Z,25.72
2022-08-07T11:29:13.064Z,26.01
2022-08-07T11:31:42.709Z,25.79
2022-08-07T11:34:00.296Z,25.59
2022-08-07T11:36:20.548Z,25.91
2022-08-07T11:38:34.495Z,26.16
2022-08-07T11:40:49.871Z,26.39
2022-08-07T11:43:00.823Z,26.50
2022-08-07T11:45:20.504Z,26.57
2022-08-07T11:47:56.662Z,26.48
2022-08-07T11:50:32.755Z,26.54
2022-08-07T11:52:51.290Z,26.61
2022-08-07T11:55:13.192Z,26.56
2022-08-07T11:57:58.039Z,26.52
2022-08-07T12:00:19.530Z,26.43
2022-08-07T12:02:37.057Z,26.66
2022-08-07T12:04:57.408Z,26.72
2022-08-07T12:07:09.125Z,26.78
2022-08-07T12:09:31.723Z,26.80
2022-08-07T12:11:43.486Z,26.97
2022-08-07T12:14:19.164Z,26.97
2022-08-07T12:16:30.709Z,27.09
2022-08-07T12:18:39.130Z,27.19
2022-08-07T12:20:57.173Z,27.35
2022-08-07T12:24:05.981Z,27.43
2022-08-07T12:26:02.797Z,27.33
2022-08-07T12:28:30.848Z,27.45
2022-08-07T12:30:40.402Z,27.38
2022-08-07T12:32:59.005Z,27.62
2022-08-07T12:35:05.691Z,27.75
2022-08-07T12:37:16.565Z,27.78
2022-08-07T12:39:42.715Z,27.75
2022-08-07T12:41:51.909Z,27.83
2022-08-07T12:44:03.455Z,27.98
2022-08-07T12:46:31.994Z,28.01
2022-08-07T12:48:51.934Z,28.16
2022-08-07T12:51:17.172Z,28.37
2022-08-07T12:53:30.222Z,28.12
2022-08-07T12:56:09.250Z,27.27
2022-08-07T12:58:18.026Z,27.58
2022-08-07T13:00:32.726Z,27.72
2022-08-07T13:03:00.908Z,27.75
2022-08-07T13:06:03.305Z,28.11
2022-08-07T13:08:12.555Z,28.31
2022-08-07T13:10:39.527Z,28.41
2022-08-07T13:12:58.002Z,28.54
2022-08-07T13:15:07.976Z,28.52
2022-08-07T13:17:21.310Z,28.62
2022-08-07T13:19:50.551Z,28.74
2022-08-07T13:22:12.698Z,28.92
2022-08-07T13:24:29.409Z,28.76
2022-08-07T13:26:41.696Z,28.96
2022-08-07T13:28:58.162Z,29.13
2022-08-07T13:31:06.380Z,29.35
2022-08-07T13:34:33.141Z,29.32
2022-08-07T13:35:59.565Z,29.49
2022-08-07T13:38:15.074Z,29.32
2022-08-07T13:40:34.346Z,29.36
2022-08-07T13:42:47.302Z,28.95
2022-08-07T13:45:11.561Z,28.90
2022-08-07T13:47:25.199Z,28.95
2022-08-07T13:50:33.065Z,29.11
2022-08-07T13:52:16.395Z,29.13
2022-08-07T13:54:33.520Z,29.20
2022-08-07T13:56:51.958Z,29.39
2022-08-07T13:59:05.492Z,29.52
2022-08-07T14:01:13.508Z,29.62
2022-08-07T14:03:30.069Z,29.52
2022-08-07T14:05:46.346Z,29.58
2022-08-07T14:08:00.122Z,29.70
2022-08-07T14:10:21.637Z,29.74
2022-08-07T14:12:42.025Z,29.65
2022-08-07T14:14:57.143Z,29.58
2022-08-07T14:17:13.051Z,29.42
2022-08-07T14:20:43.229Z,29.46
2022-08-07T14:22:12.467Z,29.82
2022-08-07T14:24:33.347Z,30.01
2022-08-07T14:26:50.316Z,30.13
2022-08-07T14:28:57.461Z,30.35
2022-08-07T14:31:05.888Z,30.48
2022-08-07T14:33:10.161Z,30.64
2022-08-07T14:35:43.312Z,30.38
2022-08-07T14:38:05.542Z,30.33
2022-08-07T14:40:26.586Z,30.32
2022-08-07T14:42:35.506Z,30.78
2022-08-07T14:47:27.719Z,31.07
2022-08-07T14:49:57.133Z,31.08
2022-08-07T14:52:02.790Z,30.68
2022-08-07T14:54:34.462Z,30.85
2022-08-07T14:56:35.183Z,30.86
2022-08-07T14:58:42.629Z,30.88
2022-08-07T15:00:51.576Z,30.84
2022-08-07T15:02:58.247Z,30.85
2022-08-07T15:05:02.334Z,30.87
2022-08-07T15:07:17.803Z,30.81
2022-08-07T15:12:01.489Z,30.86
2022-08-07T15:14:10.825Z,30.98
2022-08-07T15:16:20.166Z,31.06
2022-08-07T15:18:41.915Z,31.14
2022-08-07T15:20:55.026Z,31.23
2022-08-07T15:23:20.146Z,31.18
2022-08-07T15:28:36.294Z,30.96
2022-08-07T15:30:28.579Z,30.90
2022-08-07T15:35:06.569Z,30.76
2022-08-07T15:37:12.148Z,30.60
2022-08-07T15:39:17.671Z,30.55
2022-08-07T15:42:44.932Z,30.58
2022-08-07T15:44:02.234Z,30.73
2022-08-07T15:51:11.856Z,30.52
2022-08-07T15:53:21.685Z,30.51
2022-08-07T15:55:53.429Z,30.47
2022-08-07T15:58:00.256Z,30.50
2022-08-07T16:00:07.094Z,30.48
2022-08-07T16:02:15.482Z,30.66
2022-08-07T16:04:20.606Z,30.80
2022-08-07T16:06:31.110Z,30.75
2022-08-07T16:08:38.338Z,30.69
2022-08-07T16:10:48.648Z,30.65
2022-08-07T16:13:05.448Z,30.50
2022-08-07T16:15:55.293Z,30.52
2022-08-07T16:18:09.301Z,30.32
2022-08-07T16:21:43.712Z,30.25
2022-08-07T16:23:53.572Z,30.32
2022-08-07T16:26:06.349Z,30.32
2022-08-07T16:30:05.663Z,30.40
2022-08-07T16:30:53.451Z,30.69
2022-08-07T16:34:01.306Z,30.82
2022-08-07T16:35:52.132Z,30.92
2022-08-07T16:38:38.973Z,30.80
2022-08-07T16:41:12.679Z,30.61
2022-08-07T16:44:03.787Z,30.28
2022-08-07T16:47:05.985Z,30.34
2022-08-07T16:50:27.541Z,30.32
2022-08-07T16:52:48.701Z,30.15
2022-08-07T16:54:54.213Z,29.96
2022-08-07T16:58:01.037Z,30.19
2022-08-07T16:59:55.837Z,30.21
2022-08-07T17:02:11.846Z,30.14
2022-08-07T17:04:32.055Z,29.94
2022-08-07T17:06:57.896Z,29.70
2022-08-07T17:10:05.433Z,29.70
2022-08-07T17:12:01.483Z,29.63
2022-08-07T17:14:19.037Z,29.70
2022-08-07T17:16:27.063Z,29.57
2022-08-07T17:18:37.128Z,29.61
2022-08-07T17:20:42.417Z,29.50
2022-08-07T17:23:03.830Z,29.61
2022-08-07T17:25:17.651Z,29.59
2022-08-07T17:27:35.315Z,29.69
2022-08-07T17:30:14.723Z,29.46
2022-08-07T17:32:35.318Z,29.23
2022-08-07T17:35:32.957Z,29.12
2022-08-07T17:38:05.776Z,29.26
2022-08-07T17:39:53.218Z,29.35
2022-08-07T17:42:12.917Z,29.54
2022-08-07T17:44:41.290Z,29.44
2022-08-07T17:46:55.801Z,29.20
2022-08-07T17:49:09.525Z,29.06
2022-08-07T17:51:23.019Z,28.87
2022-08-07T17:54:01.039Z,28.70
2022-08-07T17:56:12.320Z,28.65
2022-08-07T17:58:30.552Z,28.54
2022-08-07T18:00:48.702Z,28.33
2022-08-07T18:02:57.715Z,28.32
2022-08-07T18:05:21.079Z,28.41
2022-08-07T18:07:38.072Z,28.06
2022-08-07T18:10:06.310Z,27.99
2022-08-07T18:12:27.881Z,27.90
2022-08-07T18:14:45.045Z,27.65
2022-08-07T18:16:57.490Z,27.51
2022-08-07T18:21:08.287Z,27.38
2022-08-07T18:21:58.337Z,27.20
2022-08-07T18:24:07.010Z,27.11
2022-08-07T18:26:16.486Z,26.98
2022-08-07T18:28:35.844Z,26.76
2022-08-07T18:30:50.171Z,26.74
2022-08-07T18:33:27.039Z,26.71
2022-08-07T18:35:51.712Z,26.64
2022-08-07T18:38:59.265Z,26.56
2022-08-07T18:40:53.654Z,26.51
2022-08-07T18:43:12.241Z,26.32
2022-08-07T18:45:43.908Z,26.30
2022-08-07T18:48:01.333Z,26.05
2022-08-07T18:50:38.726Z,25.95
2022-08-07T18:53:04.553Z,25.79
2022-08-07T18:55:40.646Z,25.70
2022-08-07T18:57:58.573Z,25.57
2022-08-07T19:00:34.418Z,25.46
2022-08-07T19:02:42.468Z,25.36
2022-08-07T19:05:10.464Z,25.30
2022-08-07T19:07:34.415Z,25.21
2022-08-07T19:09:57.702Z,25.17
2022-08-07T19:12:12.289Z,25.11
2022-08-07T19:14:23.768Z,25.11
2022-08-07T19:17:06.908Z,25.10
2022-08-07T19:19:16.392Z,24.96
2022-08-07T19:21:55.834Z,24.83
2022-08-07T19:24:07.761Z,24.81
2022-08-07T19:26:22.808Z,24.77
2022-08-07T19:30:57.966Z,24.66
2022-08-07T19:31:39.546Z,24.38
2022-08-07T19:33:41.923Z,24.55
2022-08-07T19:35:52.855Z,24.49
2022-08-07T19:37:59.530Z,24.48
2022-08-07T19:40:05.987Z,24.46
2022-08-07T19:42:24.552Z,24.47
2022-08-07T19:44:41.135Z,24.46
2022-08-07T19:46:55.860Z,24.44
2022-08-07T19:49:06.510Z,24.36
2022-08-07T19:51:19.230Z,24.33
2022-08-07T19:54:32.371Z,24.22
2022-08-07T19:55:57.750Z,24.15
2022-08-07T19:58:13.473Z,24.07
2022-08-07T20:00:28.836Z,24.06
2022-08-07T20:02:39.154Z,24.01
2022-08-07T20:04:46.282Z,23.97
2022-08-07T20:06:55.253Z,23.84
2022-08-07T20:09:03.080Z,23.88
2022-08-07T20:11:12.196Z,23.84
2022-08-07T20:13:27.134Z,23.87
2022-08-07T20:15:37.440Z,23.80
2022-08-07T20:17:43.691Z,23.79
2022-08-07T20:19:58.537Z,23.67
2022-08-07T20:22:03.365Z,23.67
2022-08-07T20:24:16.546Z,23.63
2022-08-07T20:26:32.833Z,23.57
2022-08-07T20:28:45.169Z,23.55
2022-08-07T20:30:50.714Z,23.51
2022-08-07T20:32:56.815Z,23.49
2022-08-07T20:35:08.452Z,23.44
2022-08-07T20:37:15.189Z,23.45
2022-08-07T20:40:01.046Z,23.40
2022-08-07T20:41:49.236Z,23.41
2022-08-07T20:43:57.313Z,23.32
2022-08-07T20:46:26.518Z,23.35
2022-08-07T20:48:30.848Z,23.36
2022-08-07T20:50:40.486Z,23.28
2022-08-07T20:52:51.354Z,23.28
2022-08-07T20:54:57.038Z,23.25
2022-08-07T20:57:08.228Z,23.27
2022-08-07T21:00:05.089Z,23.23
2022-08-07T21:01:45.663Z,23.15
2022-08-07T21:04:21.938Z,23.08
2022-08-07T21:06:31.593Z,23.10
2022-08-07T21:08:39.346Z,23.09
2022-08-07T21:10:46.262Z,23.09
2022-08-07T21:12:52.337Z,23.09
2022-08-07T21:14:59.693Z,23.17
2022-08-07T21:18:04.069Z,23.13
2022-08-07T21:19:50.765Z,23.11
2022-08-07T21:21:59.985Z,23.11
2022-08-07T21:24:10.122Z,23.02
2022-08-07T21:26:22.830Z,22.98
2022-08-07T21:28:49.299Z,22.88
2022-08-07T21:31:02.363Z,22.86
2022-08-07T21:33:15.240Z,22.80
2022-08-07T21:35:34.809Z,22.77
2022-08-07T21:38:00.768Z,22.64
2022-08-07T21:40:09.957Z,22.59
2022-08-07T21:42:42.813Z,22.56
2022-08-07T21:44:55.022Z,22.44
2022-08-07T21:47:12.346Z,22.34
2022-08-07T21:49:28.123Z,22.22
2022-08-07T21:51:51.363Z,22.14
2022-08-07T21:54:18.841Z,22.14
2022-08-07T21:56:36.656Z,22.10
2022-08-07T21:58:53.791Z,22.05
2022-08-07T22:01:01.783Z,21.98
2022-08-07T22:03:16.803Z,21.83
2022-08-07T22:05:45.489Z,21.89
2022-08-07T22:07:58.559Z,21.83
2022-08-07T22:10:08.026Z,21.77
2022-08-07T22:12:16.300Z,21.84
2022-08-07T22:14:34.553Z,21.87
2022-08-07T22:16:47.716Z,21.86
2022-08-07T22:19:01.159Z,21.90
2022-08-07T22:21:15.531Z,21.84
2022-08-07T22:23:23.717Z,21.75
2022-08-07T22:25:38.898Z,21.71
2022-08-07T22:28:07.990Z,21.74
2022-08-07T22:30:17.611Z,21.70
2022-08-07T22:32:27.518Z,21.71
2022-08-07T22:34:49.407Z,21.63
2022-08-07T22:37:09.326Z,21.71
2022-08-07T22:39:23.483Z,21.62
2022-08-07T22:42:03.958Z,21.31
2022-08-07T22:44:04.366Z,21.60
2022-08-07T22:47:02.924Z,21.45
2022-08-07T22:49:11.252Z,21.27
2022-08-07T22:51:39.084Z,21.41
2022-08-07T22:54:07.137Z,21.32
2022-08-07T22:56:23.637Z,21.25
2022-08-07T22:59:04.905Z,21.10
2022-08-07T23:01:49.476Z,20.98
2022-08-07T23:04:09.371Z,20.94
2022-08-07T23:06:26.298Z,20.86
2022-08-07T23:08:47.833Z,20.81
2022-08-07T23:11:10.063Z,20.78
2022-08-07T23:13:48.628Z,20.54
2022-08-07T23:16:46.841Z,20.66
2022-08-07T23:19:11.111Z,20.59
2022-08-07T23:21:29.963Z,20.56
2022-08-07T23:24:11.814Z,20.55
2022-08-07T23:26:25.133Z,20.55
2022-08-07T23:28:54.402Z,20.61
2022-08-07T23:32:48.656Z,20.55
2022-08-07T23:34:21.909Z,20.53
2022-08-07T23:36:43.264Z,20.55
2022-08-07T23:38:57.302Z,20.41
2022-08-07T23:41:16.347Z,20.51
2022-08-07T23:43:55.584Z,20.52
2022-08-07T23:46:19.962Z,20.44
2022-08-07T23:48:47.079Z,20.46
2022-08-07T23:50:55.296Z,20.43
2022-08-07T23:53:08.680Z,20.44
2022-08-07T23:55:52.987Z,20.38
2022-08-07T23:57:56.980Z,20.39
